sensor_id;sensor_type;location;lat;lon;timestamp;pressure;altitude;pressure_sealevel;temperature;humidity
12799;BME280;19250;42.646;26.980;2023-01-15T00:00:57;99604.72;;;7.88;100.00
12799;BME280;19250;42.646;26.980;2023-01-15T00:03:26;99613.03;;;7.94;100.00
12799;BME280;19250;42.646;26.980;2023-01-15T00:05:52;99616.97;;;8.00;100.00
12799;BME280;19250;42.646;26.980;2023-01-15T00:08:19;99559.41;;;7.68;100.00
12799;BME280;19250;42.646;26.980;2023-01-15T00:10:46;99623.59;;;8.05;100.00
12799;BME280;19250;42.646;26.980;2023-01-15T00:13:13;99623.22;;;7.78;100.00
12799;BME280;19250;42.646;26.980;2023-01-15T00:15:40;99626.53;;;7.59;100.00
12799;BME280;19250;42.646;26.980;2023-01-15T00:18:07;99622.53;;;7.65;100.00
12799;BME280;19250;42.646;26.980;2023-01-15T00:20:35;99625.06;;;7.66;100.00
12799;BME280;19250;42.646;26.980;2023-01-15T00:23:02;99614.03;;;7.82;100.00
12799;BME280;19250;42.646;26.980;2023-01-15T00:25:29;99620.00;;;7.63;100.00
12799;BME280;19250;42.646;26.980;2023-01-15T00:28:13;99621.41;;;7.67;100.00
12799;BME280;19250;42.646;26.980;2023-01-15T00:30:40;99617.78;;;7.37;100.00
12799;BME280;19250;42.646;26.980;2023-01-15T00:33:07;99616.25;;;7.66;100.00
12799;BME280;19250;42.646;26.980;2023-01-15T00:35:36;99619.06;;;7.53;100.00
12799;BME280;19250;42.646;26.980;2023-01-15T00:38:02;99616.09;;;7.36;100.00
12799;BME280;19250;42.646;26.980;2023-01-15T00:40:29;99617.59;;;7.49;100.00
12799;BME280;19250;42.646;26.980;2023-01-15T00:42:56;99620.59;;;7.67;100.00
12799;BME280;19250;42.646;26.980;2023-01-15T00:45:23;99620.91;;;7.42;100.00
12799;BME280;19250;42.646;26.980;2023-01-15T00:47:50;99619.81;;;7.44;100.00
12799;BME280;19250;42.646;26.980;2023-01-15T00:50:17;99625.06;;;7.55;100.00
12799;BME280;19250;42.646;26.980;2023-01-15T00:52:45;99622.47;;;7.44;100.00
12799;BME280;19250;42.646;26.980;2023-01-15T00:55:12;99622.69;;;7.41;100.00
12799;BME280;19250;42.646;26.980;2023-01-15T00:57:38;99611.19;;;7.09;100.00
12799;BME280;19250;42.646;26.980;2023-01-15T01:00:06;99610.19;;;7.32;100.00
12799;BME280;19250;42.646;26.980;2023-01-15T01:02:33;99618.31;;;7.62;100.00
12799;BME280;19250;42.646;26.980;2023-01-15T01:05:00;99615.00;;;7.38;100.00
12799;BME280;19250;42.646;26.980;2023-01-15T01:07:27;99617.59;;;7.60;100.00
12799;BME280;19250;42.646;26.980;2023-01-15T01:09:55;99607.94;;;7.59;100.00
12799;BME280;19250;42.646;26.980;2023-01-15T01:12:22;99603.06;;;7.76;100.00
12799;BME280;19250;42.646;26.980;2023-01-15T01:14:50;99603.75;;;7.89;100.00
12799;BME280;19250;42.646;26.980;2023-01-15T01:17:17;99560.84;;;7.41;100.00
12799;BME280;19250;42.646;26.980;2023-01-15T01:19:44;99606.13;;;7.60;100.00
12799;BME280;19250;42.646;26.980;2023-01-15T01:22:10;99599.47;;;7.77;100.00
12799;BME280;19250;42.646;26.980;2023-01-15T01:24:37;99597.22;;;8.13;100.00
12799;BME280;19250;42.646;26.980;2023-01-15T01:27:06;99604.81;;;8.18;100.00
12799;BME280;19250;42.646;26.980;2023-01-15T01:29:32;99602.75;;;8.01;100.00
12799;BME280;19250;42.646;26.980;2023-01-15T01:31:59;99606.34;;;7.68;100.00
12799;BME280;19250;42.646;26.980;2023-01-15T01:34:26;99598.56;;;7.44;100.00
12799;BME280;19250;42.646;26.980;2023-01-15T01:36:53;99599.56;;;7.75;100.00
12799;BME280;19250;42.646;26.980;2023-01-15T01:39:20;99600.03;;;7.80;100.00
12799;BME280;19250;42.646;26.980;2023-01-15T01:41:46;99608.69;;;7.50;100.00
12799;BME280;19250;42.646;26.980;2023-01-15T01:47:00;99594.47;;;7.51;100.00
12799;BME280;19250;42.646;26.980;2023-01-15T01:49:28;99596.56;;;7.80;100.00
12799;BME280;19250;42.646;26.980;2023-01-15T01:51:57;99596.59;;;8.21;100.00
12799;BME280;19250;42.646;26.980;2023-01-15T01:54:26;99596.59;;;8.21;100.00
12799;BME280;19250;42.646;26.980;2023-01-15T01:56:54;99603.72;;;8.20;100.00
12799;BME280;19250;42.646;26.980;2023-01-15T01:59:21;99606.53;;;8.08;100.00
12799;BME280;19250;42.646;26.980;2023-01-15T02:01:50;99598.44;;;7.89;100.00
12799;BME280;19250;42.646;26.980;2023-01-15T02:04:20;99595.94;;;8.08;100.00
12799;BME280;19250;42.646;26.980;2023-01-15T02:06:48;99602.66;;;7.91;100.00
12799;BME280;19250;42.646;26.980;2023-01-15T02:09:15;99599.63;;;7.64;100.00
12799;BME280;19250;42.646;26.980;2023-01-15T02:11:42;99596.47;;;7.59;100.00
12799;BME280;19250;42.646;26.980;2023-01-15T02:14:09;99603.59;;;7.70;100.00
12799;BME280;19250;42.646;26.980;2023-01-15T02:16:41;99593.13;;;7.89;100.00
12799;BME280;19250;42.646;26.980;2023-01-15T02:19:13;99593.41;;;8.06;100.00
12799;BME280;19250;42.646;26.980;2023-01-15T02:21:45;99595.47;;;8.03;100.00
12799;BME280;19250;42.646;26.980;2023-01-15T02:24:15;99600.84;;;7.60;100.00
12799;BME280;19250;42.646;26.980;2023-01-15T02:26:47;99600.38;;;7.87;100.00
12799;BME280;19250;42.646;26.980;2023-01-15T02:29:16;99596.50;;;7.91;100.00
12799;BME280;19250;42.646;26.980;2023-01-15T02:31:46;99593.19;;;7.98;100.00
12799;BME280;19250;42.646;26.980;2023-01-15T02:34:16;99595.56;;;8.12;100.00
12799;BME280;19250;42.646;26.980;2023-01-15T02:36:46;99590.16;;;7.71;100.00
12799;BME280;19250;42.646;26.980;2023-01-15T02:39:16;99593.94;;;8.00;100.00
12799;BME280;19250;42.646;26.980;2023-01-15T02:41:44;99599.00;;;7.92;100.00
12799;BME280;19250;42.646;26.980;2023-01-15T02:44:14;99597.47;;;7.90;100.00
12799;BME280;19250;42.646;26.980;2023-01-15T02:46:42;99596.78;;;8.08;100.00
12799;BME280;19250;42.646;26.980;2023-01-15T02:49:10;99596.16;;;8.16;100.00
12799;BME280;19250;42.646;26.980;2023-01-15T02:51:40;99599.16;;;7.91;100.00
12799;BME280;19250;42.646;26.980;2023-01-15T02:54:10;99596.34;;;7.92;100.00
12799;BME280;19250;42.646;26.980;2023-01-15T02:56:38;99602.50;;;7.93;100.00
12799;BME280;19250;42.646;26.980;2023-01-15T02:59:07;99599.38;;;7.67;100.00
12799;BME280;19250;42.646;26.980;2023-01-15T03:01:37;99607.69;;;7.62;100.00
12799;BME280;19250;42.646;26.980;2023-01-15T03:04:06;99601.50;;;7.19;100.00
12799;BME280;19250;42.646;26.980;2023-01-15T03:06:36;99597.19;;;7.07;100.00
12799;BME280;19250;42.646;26.980;2023-01-15T03:09:04;99600.31;;;7.01;100.00
12799;BME280;19250;42.646;26.980;2023-01-15T03:11:32;99599.38;;;7.02;100.00
12799;BME280;19250;42.646;26.980;2023-01-15T03:14:03;99595.28;;;6.76;100.00
12799;BME280;19250;42.646;26.980;2023-01-15T03:16:34;99591.41;;;7.02;100.00
12799;BME280;19250;42.646;26.980;2023-01-15T03:19:03;99591.91;;;6.63;100.00
12799;BME280;19250;42.646;26.980;2023-01-15T03:21:37;99599.81;;;6.40;100.00
12799;BME280;19250;42.646;26.980;2023-01-15T03:24:05;99597.41;;;6.48;100.00
12799;BME280;19250;42.646;26.980;2023-01-15T03:26:34;99597.28;;;6.39;100.00
12799;BME280;19250;42.646;26.980;2023-01-15T03:29:01;99596.06;;;6.32;100.00
12799;BME280;19250;42.646;26.980;2023-01-15T03:31:30;99599.50;;;6.21;100.00
12799;BME280;19250;42.646;26.980;2023-01-15T03:33:57;99599.00;;;6.05;100.00
12799;BME280;19250;42.646;26.980;2023-01-15T03:36:25;99597.94;;;6.19;100.00
12799;BME280;19250;42.646;26.980;2023-01-15T03:38:53;99595.44;;;5.93;100.00
12799;BME280;19250;42.646;26.980;2023-01-15T03:41:23;99569.28;;;5.78;100.00
12799;BME280;19250;42.646;26.980;2023-01-15T03:43:55;99589.34;;;5.93;100.00
12799;BME280;19250;42.646;26.980;2023-01-15T03:46:26;99598.56;;;6.33;100.00
12799;BME280;19250;42.646;26.980;2023-01-15T03:48:59;99596.63;;;6.13;100.00
12799;BME280;19250;42.646;26.980;2023-01-15T03:51:32;99590.88;;;6.30;100.00
12799;BME280;19250;42.646;26.980;2023-01-15T03:54:01;99593.75;;;6.27;100.00
12799;BME280;19250;42.646;26.980;2023-01-15T03:56:32;99592.94;;;6.27;100.00
12799;BME280;19250;42.646;26.980;2023-01-15T03:59:02;99593.94;;;6.59;100.00
12799;BME280;19250;42.646;26.980;2023-01-15T04:01:32;99582.72;;;6.55;100.00
12799;BME280;19250;42.646;26.980;2023-01-15T04:04:00;99516.22;;;6.03;100.00
12799;BME280;19250;42.646;26.980;2023-01-15T04:06:28;99591.16;;;6.38;100.00
12799;BME280;19250;42.646;26.980;2023-01-15T04:08:58;99589.06;;;6.31;100.00
12799;BME280;19250;42.646;26.980;2023-01-15T04:11:25;99592.09;;;6.37;100.00
12799;BME280;19250;42.646;26.980;2023-01-15T04:13:52;99598.34;;;6.36;100.00
12799;BME280;19250;42.646;26.980;2023-01-15T04:16:22;99515.53;;;5.77;100.00
12799;BME280;19250;42.646;26.980;2023-01-15T04:18:50;99601.91;;;6.13;100.00
12799;BME280;19250;42.646;26.980;2023-01-15T04:21:16;99592.97;;;6.03;100.00
12799;BME280;19250;42.646;26.980;2023-01-15T04:23:43;99593.41;;;5.86;100.00
12799;BME280;19250;42.646;26.980;2023-01-15T04:26:12;99591.75;;;5.96;100.00
12799;BME280;19250;42.646;26.980;2023-01-15T04:28:38;99591.34;;;5.66;100.00
12799;BME280;19250;42.646;26.980;2023-01-15T04:31:05;99598.41;;;5.78;100.00
12799;BME280;19250;42.646;26.980;2023-01-15T04:33:32;99594.75;;;5.79;100.00
12799;BME280;19250;42.646;26.980;2023-01-15T04:35:59;99593.19;;;5.76;100.00
12799;BME280;19250;42.646;26.980;2023-01-15T04:38:26;99601.88;;;5.55;100.00
12799;BME280;19250;42.646;26.980;2023-01-15T04:40:53;99601.16;;;5.53;100.00
12799;BME280;19250;42.646;26.980;2023-01-15T04:43:39;99596.13;;;5.61;100.00
12799;BME280;19250;42.646;26.980;2023-01-15T04:46:23;99585.38;;;5.51;100.00
12799;BME280;19250;42.646;26.980;2023-01-15T04:48:50;99593.84;;;5.56;100.00
12799;BME280;19250;42.646;26.980;2023-01-15T04:51:17;99583.81;;;5.48;100.00
12799;BME280;19250;42.646;26.980;2023-01-15T04:53:44;99591.97;;;5.69;100.00
12799;BME280;19250;42.646;26.980;2023-01-15T04:56:11;99592.72;;;5.71;100.00
12799;BME280;19250;42.646;26.980;2023-01-15T04:58:39;99593.66;;;5.94;100.00
12799;BME280;19250;42.646;26.980;2023-01-15T05:01:09;99596.97;;;5.85;100.00
12799;BME280;19250;42.646;26.980;2023-01-15T05:03:36;99592.53;;;5.85;100.00
12799;BME280;19250;42.646;26.980;2023-01-15T05:06:03;99604.25;;;6.40;100.00
12799;BME280;19250;42.646;26.980;2023-01-15T05:08:30;99610.41;;;6.40;100.00
12799;BME280;19250;42.646;26.980;2023-01-15T05:11:00;99476.00;;;5.52;100.00
12799;BME280;19250;42.646;26.980;2023-01-15T05:13:28;99620.03;;;6.41;100.00
12799;BME280;19250;42.646;26.980;2023-01-15T05:15:57;99619.03;;;6.20;100.00
12799;BME280;19250;42.646;26.980;2023-01-15T05:18:32;99616.41;;;6.42;100.00
12799;BME280;19250;42.646;26.980;2023-01-15T05:20:59;99633.53;;;6.38;100.00
12799;BME280;19250;42.646;26.980;2023-01-15T05:23:25;99624.50;;;6.06;100.00
12799;BME280;19250;42.646;26.980;2023-01-15T05:25:52;99616.22;;;6.11;100.00
12799;BME280;19250;42.646;26.980;2023-01-15T05:28:19;99613.91;;;5.82;100.00
12799;BME280;19250;42.646;26.980;2023-01-15T05:30:46;99616.63;;;5.93;100.00
12799;BME280;19250;42.646;26.980;2023-01-15T05:33:14;99625.16;;;5.86;100.00
12799;BME280;19250;42.646;26.980;2023-01-15T05:35:41;99628.16;;;6.16;100.00
12799;BME280;19250;42.646;26.980;2023-01-15T05:38:08;99631.00;;;6.02;100.00
12799;BME280;19250;42.646;26.980;2023-01-15T05:40:35;99628.19;;;5.92;100.00
12799;BME280;19250;42.646;26.980;2023-01-15T05:43:01;99626.63;;;5.90;100.00
12799;BME280;19250;42.646;26.980;2023-01-15T05:45:28;99635.94;;;5.83;100.00
12799;BME280;19250;42.646;26.980;2023-01-15T05:47:55;99566.69;;;5.41;100.00
12799;BME280;19250;42.646;26.980;2023-01-15T05:50:23;99632.75;;;6.25;100.00
12799;BME280;19250;42.646;26.980;2023-01-15T05:52:50;99635.16;;;6.28;100.00
12799;BME280;19250;42.646;26.980;2023-01-15T05:55:17;99632.75;;;6.25;100.00
12799;BME280;19250;42.646;26.980;2023-01-15T05:57:44;99638.72;;;6.05;100.00
12799;BME280;19250;42.646;26.980;2023-01-15T06:00:11;99639.28;;;5.97;100.00
12799;BME280;19250;42.646;26.980;2023-01-15T06:02:38;99637.31;;;5.76;100.00
12799;BME280;19250;42.646;26.980;2023-01-15T06:05:05;99632.66;;;5.19;100.00
12799;BME280;19250;42.646;26.980;2023-01-15T06:07:33;99633.63;;;5.18;100.00
12799;BME280;19250;42.646;26.980;2023-01-15T06:10:00;99629.16;;;5.79;100.00
12799;BME280;19250;42.646;26.980;2023-01-15T06:12:27;99623.53;;;5.83;100.00
12799;BME280;19250;42.646;26.980;2023-01-15T06:14:54;99627.16;;;6.06;100.00
12799;BME280;19250;42.646;26.980;2023-01-15T06:17:21;99635.38;;;6.14;100.00
12799;BME280;19250;42.646;26.980;2023-01-15T06:19:48;99625.28;;;6.19;100.00
12799;BME280;19250;42.646;26.980;2023-01-15T06:22:14;99630.38;;;5.98;100.00
12799;BME280;19250;42.646;26.980;2023-01-15T06:24:43;99623.63;;;6.29;100.00
12799;BME280;19250;42.646;26.980;2023-01-15T06:27:10;99628.63;;;6.56;100.00
12799;BME280;19250;42.646;26.980;2023-01-15T06:29:37;99557.63;;;6.15;100.00
12799;BME280;19250;42.646;26.980;2023-01-15T06:32:04;99634.94;;;6.42;100.00
12799;BME280;19250;42.646;26.980;2023-01-15T06:34:31;99633.53;;;6.38;100.00
12799;BME280;19250;42.646;26.980;2023-01-15T06:36:58;99630.47;;;6.21;100.00
12799;BME280;19250;42.646;26.980;2023-01-15T06:39:25;99559.03;;;5.97;100.00
12799;BME280;19250;42.646;26.980;2023-01-15T06:41:53;99626.19;;;6.64;100.00
12799;BME280;19250;42.646;26.980;2023-01-15T06:44:37;99626.84;;;6.79;100.00
12799;BME280;19250;42.646;26.980;2023-01-15T06:47:21;99631.03;;;7.03;100.00
12799;BME280;19250;42.646;26.980;2023-01-15T06:49:49;99632.38;;;6.98;100.00
12799;BME280;19250;42.646;26.980;2023-01-15T06:52:16;99632.63;;;6.95;100.00
12799;BME280;19250;42.646;26.980;2023-01-15T06:54:43;99629.00;;;7.18;100.00
12799;BME280;19250;42.646;26.980;2023-01-15T06:57:11;99644.31;;;6.92;100.00
12799;BME280;19250;42.646;26.980;2023-01-15T06:59:38;99629.31;;;6.58;100.00
12799;BME280;19250;42.646;26.980;2023-01-15T07:02:04;99628.16;;;6.73;100.00
12799;BME280;19250;42.646;26.980;2023-01-15T07:04:31;99630.56;;;6.65;100.00
12799;BME280;19250;42.646;26.980;2023-01-15T07:06:58;99632.97;;;6.68;100.00
12799;BME280;19250;42.646;26.980;2023-01-15T07:09:25;99630.53;;;6.54;100.00
12799;BME280;19250;42.646;26.980;2023-01-15T07:11:52;99621.06;;;6.85;100.00
12799;BME280;19250;42.646;26.980;2023-01-15T07:14:20;99622.72;;;6.86;100.00
12799;BME280;19250;42.646;26.980;2023-01-15T07:16:48;99624.19;;;7.01;100.00
12799;BME280;19250;42.646;26.980;2023-01-15T07:19:15;99621.75;;;7.42;100.00
12799;BME280;19250;42.646;26.980;2023-01-15T07:21:42;99631.50;;;7.42;100.00
12799;BME280;19250;42.646;26.980;2023-01-15T07:24:10;99632.97;;;7.78;100.00
12799;BME280;19250;42.646;26.980;2023-01-15T07:26:37;99634.88;;;7.87;100.00
12799;BME280;19250;42.646;26.980;2023-01-15T07:29:04;99640.88;;;8.00;100.00
12799;BME280;19250;42.646;26.980;2023-01-15T07:31:32;99648.16;;;7.87;100.00
12799;BME280;19250;42.646;26.980;2023-01-15T07:33:59;99636.19;;;8.24;100.00
12799;BME280;19250;42.646;26.980;2023-01-15T07:36:26;99639.09;;;8.53;100.00
12799;BME280;19250;42.646;26.980;2023-01-15T07:38:53;99640.06;;;8.20;100.00
12799;BME280;19250;42.646;26.980;2023-01-15T07:41:20;99648.28;;;8.69;100.00
12799;BME280;19250;42.646;26.980;2023-01-15T07:44:04;99651.09;;;8.77;100.00
12799;BME280;19250;42.646;26.980;2023-01-15T07:46:49;99647.31;;;9.01;100.00
12799;BME280;19250;42.646;26.980;2023-01-15T07:49:33;99649.69;;;8.73;100.00
12799;BME280;19250;42.646;26.980;2023-01-15T07:52:12;99649.69;;;8.73;100.00
12799;BME280;19250;42.646;26.980;2023-01-15T07:54:39;99654.34;;;9.02;100.00
12799;BME280;19250;42.646;26.980;2023-01-15T07:57:06;99661.00;;;9.57;100.00
12799;BME280;19250;42.646;26.980;2023-01-15T07:59:33;99659.16;;;9.48;100.00
12799;BME280;19250;42.646;26.980;2023-01-15T08:02:01;99664.25;;;9.30;100.00
12799;BME280;19250;42.646;26.980;2023-01-15T08:04:28;99637.44;;;9.12;100.00
12799;BME280;19250;42.646;26.980;2023-01-15T08:06:55;99677.88;;;9.86;100.00
12799;BME280;19250;42.646;26.980;2023-01-15T08:09:24;99675.97;;;10.17;100.00
12799;BME280;19250;42.646;26.980;2023-01-15T08:11:51;99673.03;;;10.20;100.00
12799;BME280;19250;42.646;26.980;2023-01-15T08:14:35;99675.25;;;10.34;100.00
12799;BME280;19250;42.646;26.980;2023-01-15T08:17:20;99671.91;;;10.51;100.00
12799;BME280;19250;42.646;26.980;2023-01-15T08:19:47;99680.47;;;10.45;100.00
12799;BME280;19250;42.646;26.980;2023-01-15T08:22:14;99686.38;;;10.39;100.00
12799;BME280;19250;42.646;26.980;2023-01-15T08:27:26;99687.34;;;10.67;100.00
12799;BME280;19250;42.646;26.980;2023-01-15T08:29:55;99690.09;;;10.84;100.00
12799;BME280;19250;42.646;26.980;2023-01-15T08:32:23;99684.97;;;10.54;100.00
12799;BME280;19250;42.646;26.980;2023-01-15T08:34:50;99646.50;;;10.28;100.00
12799;BME280;19250;42.646;26.980;2023-01-15T08:37:17;99684.19;;;10.04;100.00
12799;BME280;19250;42.646;26.980;2023-01-15T08:39:44;99681.47;;;9.75;100.00
12799;BME280;19250;42.646;26.980;2023-01-15T08:42:11;99683.69;;;9.61;100.00
12799;BME280;19250;42.646;26.980;2023-01-15T08:44:38;99678.34;;;9.61;100.00
12799;BME280;19250;42.646;26.980;2023-01-15T08:47:05;99676.69;;;9.60;100.00
12799;BME280;19250;42.646;26.980;2023-01-15T08:49:33;99680.09;;;9.01;100.00
12799;BME280;19250;42.646;26.980;2023-01-15T08:52:00;99675.69;;;9.21;100.00
12799;BME280;19250;42.646;26.980;2023-01-15T08:54:27;99676.06;;;9.87;100.00
12799;BME280;19250;42.646;26.980;2023-01-15T08:56:53;99670.88;;;9.95;100.00
12799;BME280;19250;42.646;26.980;2023-01-15T08:59:20;99668.81;;;10.46;100.00
12799;BME280;19250;42.646;26.980;2023-01-15T09:01:47;99668.66;;;10.57;100.00
12799;BME280;19250;42.646;26.980;2023-01-15T09:04:15;99662.22;;;10.50;100.00
12799;BME280;19250;42.646;26.980;2023-01-15T09:06:44;99661.22;;;10.61;100.00
12799;BME280;19250;42.646;26.980;2023-01-15T09:09:11;99661.75;;;10.07;100.00
12799;BME280;19250;42.646;26.980;2023-01-15T09:11:38;99653.34;;;10.02;100.00
12799;BME280;19250;42.646;26.980;2023-01-15T09:14:06;99649.28;;;10.55;100.00
12799;BME280;19250;42.646;26.980;2023-01-15T09:16:33;99657.69;;;9.83;100.00
12799;BME280;19250;42.646;26.980;2023-01-15T09:18:59;99636.56;;;10.20;100.00
12799;BME280;19250;42.646;26.980;2023-01-15T09:21:26;99637.25;;;10.51;100.00
12799;BME280;19250;42.646;26.980;2023-01-15T09:23:54;99639.19;;;10.59;100.00
12799;BME280;19250;42.646;26.980;2023-01-15T09:26:26;99649.31;;;11.38;100.00
12799;BME280;19250;42.646;26.980;2023-01-15T09:28:53;99642.66;;;11.79;100.00
12799;BME280;19250;42.646;26.980;2023-01-15T09:31:20;99632.16;;;11.41;100.00
12799;BME280;19250;42.646;26.980;2023-01-15T09:33:47;99634.94;;;10.75;100.00
12799;BME280;19250;42.646;26.980;2023-01-15T09:36:14;99640.34;;;10.18;100.00
12799;BME280;19250;42.646;26.980;2023-01-15T09:38:41;99633.00;;;10.58;100.00
12799;BME280;19250;42.646;26.980;2023-01-15T09:41:11;99631.81;;;10.14;100.00
12799;BME280;19250;42.646;26.980;2023-01-15T09:44:00;99629.09;;;10.05;100.00
12799;BME280;19250;42.646;26.980;2023-01-15T09:46:33;99620.81;;;10.08;100.00
12799;BME280;19250;42.646;26.980;2023-01-15T09:49:04;99622.69;;;10.26;100.00
12799;BME280;19250;42.646;26.980;2023-01-15T09:51:36;99624.34;;;10.27;100.00
12799;BME280;19250;42.646;26.980;2023-01-15T09:54:17;99616.50;;;10.35;100.00
12799;BME280;19250;42.646;26.980;2023-01-15T09:56:48;99613.53;;;10.10;100.00
12799;BME280;19250;42.646;26.980;2023-01-15T09:59:18;99611.56;;;10.21;100.00
12799;BME280;19250;42.646;26.980;2023-01-15T10:01:46;99609.19;;;10.28;100.00
12799;BME280;19250;42.646;26.980;2023-01-15T10:04:15;99609.72;;;10.51;100.00
12799;BME280;19250;42.646;26.980;2023-01-15T10:06:47;99604.69;;;10.57;100.00
12799;BME280;19250;42.646;26.980;2023-01-15T10:09:19;99601.34;;;10.36;100.00
12799;BME280;19250;42.646;26.980;2023-01-15T10:11:49;99597.41;;;10.02;100.00
12799;BME280;19250;42.646;26.980;2023-01-15T10:14:39;99599.06;;;10.12;100.00
12799;BME280;19250;42.646;26.980;2023-01-15T10:17:19;99587.59;;;10.02;100.00
12799;BME280;19250;42.646;26.980;2023-01-15T10:19:47;99579.44;;;10.42;100.00
12799;BME280;19250;42.646;26.980;2023-01-15T10:22:17;99579.09;;;10.64;100.00
12799;BME280;19250;42.646;26.980;2023-01-15T10:24:48;99563.75;;;10.39;100.00
12799;BME280;19250;42.646;26.980;2023-01-15T10:27:22;99572.19;;;10.06;100.00
12799;BME280;19250;42.646;26.980;2023-01-15T10:29:51;99559.81;;;9.95;100.00
12799;BME280;19250;42.646;26.980;2023-01-15T10:32:26;99496.47;;;9.32;100.00
12799;BME280;19250;42.646;26.980;2023-01-15T10:35:06;99554.44;;;10.53;100.00
12799;BME280;19250;42.646;26.980;2023-01-15T10:37:41;99549.59;;;10.75;100.00
12799;BME280;19250;42.646;26.980;2023-01-15T10:40:33;99539.75;;;10.85;100.00
12799;BME280;19250;42.646;26.980;2023-01-15T10:43:06;99549.31;;;11.06;100.00
12799;BME280;19250;42.646;26.980;2023-01-15T10:45:38;99546.75;;;10.40;100.00
12799;BME280;19250;42.646;26.980;2023-01-15T10:48:08;99541.97;;;10.80;100.00
12799;BME280;19250;42.646;26.980;2023-01-15T10:50:37;99540.50;;;10.96;100.00
12799;BME280;19250;42.646;26.980;2023-01-15T10:53:05;99533.81;;;10.91;100.00
12799;BME280;19250;42.646;26.980;2023-01-15T10:55:34;99530.72;;;10.86;100.00
12799;BME280;19250;42.646;26.980;2023-01-15T10:58:05;99544.69;;;9.96;100.00
12799;BME280;19250;42.646;26.980;2023-01-15T11:00:37;99530.94;;;10.29;100.00
12799;BME280;19250;42.646;26.980;2023-01-15T11:03:05;99528.09;;;10.40;100.00
12799;BME280;19250;42.646;26.980;2023-01-15T11:05:39;99526.31;;;10.12;100.00
12799;BME280;19250;42.646;26.980;2023-01-15T11:08:07;99518.75;;;9.88;100.00
12799;BME280;19250;42.646;26.980;2023-01-15T11:10:39;99519.47;;;9.61;100.00
12799;BME280;19250;42.646;26.980;2023-01-15T11:13:11;99520.41;;;9.22;100.00
12799;BME280;19250;42.646;26.980;2023-01-15T11:16:01;99517.22;;;9.76;100.00
12799;BME280;19250;42.646;26.980;2023-01-15T11:18:45;99507.56;;;8.87;100.00
12799;BME280;19250;42.646;26.980;2023-01-15T11:21:29;99506.84;;;9.82;100.00
12799;BME280;19250;42.646;26.980;2023-01-15T11:23:57;99501.78;;;10.18;100.00
12799;BME280;19250;42.646;26.980;2023-01-15T11:26:26;99499.41;;;9.96;100.00
12799;BME280;19250;42.646;26.980;2023-01-15T11:28:54;99493.13;;;9.77;100.00
12799;BME280;19250;42.646;26.980;2023-01-15T11:31:33;99494.19;;;10.04;100.00
12799;BME280;19250;42.646;26.980;2023-01-15T11:34:01;99489.81;;;10.68;100.00
12799;BME280;19250;42.646;26.980;2023-01-15T11:36:29;99490.28;;;10.64;100.00
12799;BME280;19250;42.646;26.980;2023-01-15T11:38:56;99489.63;;;11.07;100.00
12799;BME280;19250;42.646;26.980;2023-01-15T11:41:27;99488.88;;;11.32;100.00
12799;BME280;19250;42.646;26.980;2023-01-15T11:44:15;99484.75;;;11.20;100.00
12799;BME280;19250;42.646;26.980;2023-01-15T11:47:01;99488.03;;;9.26;100.00
12799;BME280;19250;42.646;26.980;2023-01-15T11:49:49;99486.69;;;9.32;100.00
12799;BME280;19250;42.646;26.980;2023-01-15T11:52:35;99481.28;;;8.94;100.00
12799;BME280;19250;42.646;26.980;2023-01-15T11:55:02;99475.25;;;8.92;100.00
12799;BME280;19250;42.646;26.980;2023-01-15T11:57:36;99471.06;;;9.08;100.00
12799;BME280;19250;42.646;26.980;2023-01-15T12:00:04;99474.34;;;9.31;100.00
12799;BME280;19250;42.646;26.980;2023-01-15T12:02:33;99467.59;;;9.17;100.00
12799;BME280;19250;42.646;26.980;2023-01-15T12:05:03;99467.53;;;8.79;100.00
12799;BME280;19250;42.646;26.980;2023-01-15T12:07:31;99463.69;;;9.31;100.00
12799;BME280;19250;42.646;26.980;2023-01-15T12:10:02;99457.50;;;9.11;100.00
12799;BME280;19250;42.646;26.980;2023-01-15T12:12:35;99459.19;;;9.03;100.00
12799;BME280;19250;42.646;26.980;2023-01-15T12:15:09;99456.97;;;9.46;100.00
12799;BME280;19250;42.646;26.980;2023-01-15T12:17:49;99398.00;;;8.74;100.00
12799;BME280;19250;42.646;26.980;2023-01-15T12:20:21;99447.72;;;9.31;100.00
12799;BME280;19250;42.646;26.980;2023-01-15T12:22:53;99447.00;;;9.67;100.00
12799;BME280;19250;42.646;26.980;2023-01-15T12:25:27;99445.44;;;9.94;100.00
12799;BME280;19250;42.646;26.980;2023-01-15T12:28:01;99380.81;;;9.92;100.00
12799;BME280;19250;42.646;26.980;2023-01-15T12:30:34;99456.88;;;10.23;100.00
12799;BME280;19250;42.646;26.980;2023-01-15T12:33:07;99452.09;;;10.63;100.00
12799;BME280;19250;42.646;26.980;2023-01-15T12:35:40;99455.75;;;10.06;100.00
12799;BME280;19250;42.646;26.980;2023-01-15T12:38:11;99448.66;;;10.44;100.00
12799;BME280;19250;42.646;26.980;2023-01-15T12:40:43;99456.13;;;9.55;100.00
12799;BME280;19250;42.646;26.980;2023-01-15T12:43:12;99448.81;;;9.00;100.00
12799;BME280;19250;42.646;26.980;2023-01-15T12:45:57;99447.72;;;9.60;100.00
12799;BME280;19250;42.646;26.980;2023-01-15T12:48:28;99441.00;;;9.27;100.00
12799;BME280;19250;42.646;26.980;2023-01-15T12:50:58;99436.53;;;9.47;100.00
12799;BME280;19250;42.646;26.980;2023-01-15T12:53:29;99452.63;;;9.64;100.00
12799;BME280;19250;42.646;26.980;2023-01-15T12:55:59;99452.72;;;9.82;100.00
12799;BME280;19250;42.646;26.980;2023-01-15T12:58:31;99445.75;;;9.81;100.00
12799;BME280;19250;42.646;26.980;2023-01-15T13:01:03;99435.94;;;9.72;100.00
12799;BME280;19250;42.646;26.980;2023-01-15T13:03:36;99431.25;;;10.03;100.00
12799;BME280;19250;42.646;26.980;2023-01-15T13:06:06;99428.09;;;9.51;100.00